Time;durP1;ratioP1;P1;durP2;ratioP2;P2;SDS_P1;SDS_P2;PMS_P1;PMS_P2;Temp;Humidity;BMP_temperature;BMP_pressure;BME280_temperature;BME280_humidity;BME280_pressure;Samples;Min_cycle;Max_cycle;Signal;HPM_P1;HPM_P2
2021/11/04 00:01:08;;;;;;;43.50;26.23;;;;;;;;;;5122761;27;20310;-61
2021/11/04 00:03:34;;;;;;;41.10;26.60;;;;;;;;;;5094247;27;20203;-61
2021/11/04 00:06:00;;;;;;;41.07;25.90;;;;;;;;;;5118060;27;20175;-61
2021/11/04 00:08:29;;;;;;;38.87;25.53;;;;;;;;;;5125781;27;20182;-61
2021/11/04 00:10:59;;;;;;;43.43;26.60;;;;;;;;;;5096087;27;20183;-61
2021/11/04 00:13:25;;;;;;;41.07;27.23;;;;;;;;;;5093366;28;20183;-62
2021/11/04 00:15:55;;;;;;;45.93;27.53;;;;;;;;;;5097778;27;20590;-62
2021/11/04 00:18:21;;;;;;;47.47;29.27;;;;;;;;;;5092278;28;20195;-61
2021/11/04 00:20:48;;;;;;;41.20;26.50;;;;;;;;;;5098681;27;20470;-61
2021/11/04 00:23:14;;;;;;;39.93;27.20;;;;;;;;;;5117449;27;20225;-62
2021/11/04 00:25:41;;;;;;;45.20;27.97;;;;;;;;;;5103154;27;20202;-62
2021/11/04 00:28:10;;;;;;;42.83;27.80;;;;;;;;;;5108874;27;20182;-61
2021/11/04 00:30:40;;;;;;;43.77;27.97;;;;;;;;;;5101968;28;20175;-61
2021/11/04 00:33:06;;;;;;;40.57;25.30;;;;;;;;;;5123645;27;20619;-61
2021/11/04 00:35:33;;;;;;;42.30;27.07;;;;;;;;;;5101150;27;20646;-62
2021/11/04 00:37:59;;;;;;;44.40;25.97;;;;;;;;;;5099658;28;20191;-62
2021/11/04 00:40:29;;;;;;;47.50;27.90;;;;;;;;;;5093171;27;20211;-61
2021/11/04 00:42:55;;;;;;;47.17;28.07;;;;;;;;;;5092812;27;20205;-61
2021/11/04 00:45:25;;;;;;;42.50;27.00;;;;;;;;;;5101949;27;20187;-62
2021/11/04 00:47:52;;;;;;;41.83;27.27;;;;;;;;;;5099223;28;20193;-61
2021/11/04 00:50:19;;;;;;;44.57;27.37;;;;;;;;;;5092829;27;20816;-62
2021/11/04 00:52:46;;;;;;;44.03;29.77;;;;;;;;;;5102094;27;20205;-62
2021/11/04 00:55:12;;;;;;;44.50;26.63;;;;;;;;;;5106110;28;20179;-61
2021/11/04 00:57:39;;;;;;;41.43;27.47;;;;;;;;;;5092070;28;20630;-61
2021/11/04 01:00:07;;;;;;;42.67;28.47;;;;;;;;;;5092698;27;20550;-61
2021/11/04 01:02:33;;;;;;;45.23;28.20;;;;;;;;;;5095075;27;20183;-61
2021/11/04 01:05:00;;;;;;;47.73;27.90;;;;;;;;;;5091490;27;20206;-61
2021/11/04 01:07:26;;;;;;;45.43;28.33;;;;;;;;;;5092504;27;20269;-61
2021/11/04 01:09:53;;;;;;;49.17;28.37;;;;;;;;;;5094276;27;20174;-61
2021/11/04 01:12:19;;;;;;;44.80;27.67;;;;;;;;;;5098165;27;20185;-61
2021/11/04 01:14:46;;;;;;;47.37;28.33;;;;;;;;;;5095375;28;20265;-62
2021/11/04 01:17:12;;;;;;;44.73;27.80;;;;;;;;;;5110849;27;20199;-61
2021/11/04 01:19:38;;;;;;;41.83;26.90;;;;;;;;;;5102226;27;20715;-61
2021/11/04 01:22:04;;;;;;;42.77;26.93;;;;;;;;;;5098251;27;20681;-61
2021/11/04 01:24:30;;;;;;;43.33;27.93;;;;;;;;;;5127673;27;20206;-62
2021/11/04 01:26:56;;;;;;;45.23;27.40;;;;;;;;;;5118446;27;20684;-61
2021/11/04 01:29:23;;;;;;;45.10;27.40;;;;;;;;;;5105539;27;20182;-62
2021/11/04 01:31:49;;;;;;;44.30;27.90;;;;;;;;;;5123986;27;20167;-61
2021/11/04 01:34:15;;;;;;;46.03;27.93;;;;;;;;;;5122434;27;20226;-61
2021/11/04 01:36:41;;;;;;;45.23;28.10;;;;;;;;;;5093443;27;20178;-61
2021/11/04 01:39:07;;;;;;;48.17;28.77;;;;;;;;;;5091207;27;20187;-61
2021/11/04 01:41:34;;;;;;;42.83;28.10;;;;;;;;;;5090864;27;20680;-61
2021/11/04 01:44:01;;;;;;;46.80;28.83;;;;;;;;;;5097006;27;20214;-62
2021/11/04 01:46:27;;;;;;;45.43;27.30;;;;;;;;;;5092230;27;20267;-61
2021/11/04 01:48:53;;;;;;;45.17;27.63;;;;;;;;;;5095364;28;20182;-61
2021/11/04 01:51:20;;;;;;;49.00;28.37;;;;;;;;;;5109406;27;20178;-61
2021/11/04 01:53:47;;;;;;;48.40;28.87;;;;;;;;;;5101406;27;20238;-61
2021/11/04 01:56:13;;;;;;;49.77;30.03;;;;;;;;;;5110368;27;20210;-61
2021/11/04 01:58:39;;;;;;;43.87;27.43;;;;;;;;;;5090878;28;20195;-61
2021/11/04 02:01:06;;;;;;;50.43;28.53;;;;;;;;;;5095895;27;20186;-62
2021/11/04 02:03:33;;;;;;;44.93;27.63;;;;;;;;;;5111665;27;20277;-61
2021/11/04 02:06:09;;;;;;;45.50;27.20;;;;;;;;;;5121407;27;20274;-61
2021/11/04 02:08:47;;;;;;;50.47;29.07;;;;;;;;;;5097894;28;20590;-62
2021/11/04 02:11:15;;;;;;;51.33;28.60;;;;;;;;;;5100175;28;20182;-61
2021/11/04 02:13:49;;;;;;;47.30;29.10;;;;;;;;;;5094222;27;20557;-61
2021/11/04 02:16:20;;;;;;;54.87;30.90;;;;;;;;;;5101048;27;20720;-61
2021/11/04 02:18:48;;;;;;;48.50;29.17;;;;;;;;;;5101478;28;20236;-62
2021/11/04 02:21:18;;;;;;;55.03;30.37;;;;;;;;;;5107348;27;20321;-61
2021/11/04 02:23:59;;;;;;;53.43;30.50;;;;;;;;;;5115020;27;20600;-61
2021/11/04 02:26:26;;;;;;;53.77;30.37;;;;;;;;;;5116592;27;21120;-61
2021/11/04 02:28:53;;;;;;;46.23;28.13;;;;;;;;;;5097165;27;20496;-61
2021/11/04 02:31:19;;;;;;;45.90;27.77;;;;;;;;;;5120282;27;20179;-61
2021/11/04 02:33:45;;;;;;;44.30;27.90;;;;;;;;;;5090687;28;20212;-61
2021/11/04 02:36:12;;;;;;;44.97;29.17;;;;;;;;;;5090834;27;20182;-61
2021/11/04 02:38:39;;;;;;;41.87;27.00;;;;;;;;;;5098404;27;20186;-61
2021/11/04 02:41:06;;;;;;;45.07;27.13;;;;;;;;;;5116767;28;20192;-61
2021/11/04 02:43:35;;;;;;;42.17;26.33;;;;;;;;;;5090564;28;20669;-61
2021/11/04 02:46:02;;;;;;;42.60;26.73;;;;;;;;;;5114988;28;20254;-61
2021/11/04 02:48:32;;;;;;;43.73;27.43;;;;;;;;;;5109625;28;20734;-60
2021/11/04 02:50:58;;;;;;;41.23;26.33;;;;;;;;;;5108952;27;20183;-60
2021/11/04 02:53:26;;;;;;;41.97;27.03;;;;;;;;;;5095727;27;20719;-60
2021/11/04 02:55:52;;;;;;;43.27;27.43;;;;;;;;;;5114500;27;20179;-61
2021/11/04 02:58:18;;;;;;;39.87;24.70;;;;;;;;;;5105240;27;20179;-61
2021/11/04 03:00:48;;;;;;;41.53;26.83;;;;;;;;;;5115122;27;20186;-60
2021/11/04 03:03:14;;;;;;;43.43;28.07;;;;;;;;;;5102551;27;20588;-60
2021/11/04 03:05:40;;;;;;;39.50;25.73;;;;;;;;;;5116587;27;20515;-61
2021/11/04 03:08:06;;;;;;;43.33;28.23;;;;;;;;;;5103126;28;20418;-61
2021/11/04 03:10:32;;;;;;;40.40;27.47;;;;;;;;;;5112125;27;20175;-60
2021/11/04 03:12:59;;;;;;;43.30;26.20;;;;;;;;;;5094931;27;20592;-60
2021/11/04 03:15:25;;;;;;;41.17;25.93;;;;;;;;;;5096001;27;20592;-60
2021/11/04 03:17:53;;;;;;;41.73;25.80;;;;;;;;;;5108582;27;20182;-61
2021/11/04 03:20:21;;;;;;;43.50;26.23;;;;;;;;;;5102255;28;20198;-60
2021/11/04 03:22:48;;;;;;;44.53;26.13;;;;;;;;;;5111470;27;20222;-62
2021/11/04 03:25:15;;;;;;;46.40;25.80;;;;;;;;;;5094820;27;20195;-61
2021/11/04 03:27:43;;;;;;;46.67;25.83;;;;;;;;;;5098898;28;20985;-60
2021/11/04 03:30:11;;;;;;;41.87;26.63;;;;;;;;;;5112875;27;21130;-60
2021/11/04 03:32:38;;;;;;;46.30;25.40;;;;;;;;;;5096763;27;20174;-60
2021/11/04 03:35:06;;;;;;;38.63;24.87;;;;;;;;;;5093880;27;20590;-61
2021/11/04 03:37:33;;;;;;;46.70;26.93;;;;;;;;;;5118248;27;20231;-60
2021/11/04 03:39:59;;;;;;;41.40;25.30;;;;;;;;;;5121491;27;20695;-60
2021/11/04 03:42:26;;;;;;;40.37;24.07;;;;;;;;;;5110072;27;20265;-59
2021/11/04 03:44:53;;;;;;;42.67;23.70;;;;;;;;;;5109714;27;20208;-61
2021/11/04 03:47:19;;;;;;;41.33;24.73;;;;;;;;;;5117519;27;20174;-62
2021/11/04 03:49:48;;;;;;;41.07;24.97;;;;;;;;;;5115653;27;20225;-61
2021/11/04 03:52:14;;;;;;;46.10;26.43;;;;;;;;;;5111109;27;20555;-60
2021/11/04 03:54:41;;;;;;;40.77;24.77;;;;;;;;;;5105504;28;20179;-61
2021/11/04 03:57:07;;;;;;;42.43;24.80;;;;;;;;;;5121922;27;20186;-61
2021/11/04 03:59:34;;;;;;;41.53;25.60;;;;;;;;;;5112160;27;20240;-61
2021/11/04 04:02:01;;;;;;;46.47;25.23;;;;;;;;;;5120717;27;20187;-60
2021/11/04 04:04:27;;;;;;;38.57;23.83;;;;;;;;;;5094211;28;20587;-62
2021/11/04 04:06:54;;;;;;;44.23;25.93;;;;;;;;;;5120741;27;20203;-61
2021/11/04 04:09:22;;;;;;;39.80;23.37;;;;;;;;;;5097784;27;20187;-61
2021/11/04 04:11:48;;;;;;;39.97;23.93;;;;;;;;;;5111619;27;20183;-61
2021/11/04 04:14:14;;;;;;;43.20;24.53;;;;;;;;;;5095439;27;20554;-61
2021/11/04 04:16:40;;;;;;;39.47;26.83;;;;;;;;;;5095246;27;20179;-61
2021/11/04 04:19:07;;;;;;;41.23;25.20;;;;;;;;;;5109356;27;20566;-60
2021/11/04 04:21:34;;;;;;;41.43;23.90;;;;;;;;;;5117477;27;20259;-61
2021/11/04 04:24:03;;;;;;;41.87;25.30;;;;;;;;;;5111099;27;20206;-61
2021/11/04 04:26:43;;;;;;;43.30;24.47;;;;;;;;;;5096290;27;20202;-61
2021/11/04 04:29:09;;;;;;;43.20;23.17;;;;;;;;;;5110898;27;20259;-62
2021/11/04 04:31:36;;;;;;;44.37;26.60;;;;;;;;;;5096701;27;20691;-61
2021/11/04 04:34:02;;;;;;;43.30;24.20;;;;;;;;;;5095203;27;20339;-61
2021/11/04 04:36:28;;;;;;;44.57;25.80;;;;;;;;;;5090867;27;20183;-61
2021/11/04 04:38:55;;;;;;;44.87;23.33;;;;;;;;;;5115834;27;20179;-61
2021/11/04 04:41:21;;;;;;;41.47;23.83;;;;;;;;;;5100220;27;20190;-61
2021/11/04 04:43:47;;;;;;;41.73;25.80;;;;;;;;;;5118799;27;20744;-62
2021/11/04 04:46:13;;;;;;;44.00;24.70;;;;;;;;;;5112267;27;20299;-61
2021/11/04 04:48:39;;;;;;;41.50;23.87;;;;;;;;;;5099683;28;20175;-63
2021/11/04 04:51:05;;;;;;;44.10;24.23;;;;;;;;;;5114399;27;20186;-62
2021/11/04 04:53:32;;;;;;;40.93;24.27;;;;;;;;;;5122016;27;20174;-62
2021/11/04 04:55:59;;;;;;;43.83;24.07;;;;;;;;;;5115956;27;20174;-62
2021/11/04 04:58:25;;;;;;;44.93;24.40;;;;;;;;;;5107379;27;20181;-62
2021/11/04 05:00:52;;;;;;;40.77;23.97;;;;;;;;;;5094278;27;20182;-61
2021/11/04 05:03:19;;;;;;;40.27;24.33;;;;;;;;;;5106413;27;20225;-62
2021/11/04 05:05:45;;;;;;;41.40;24.07;;;;;;;;;;5106205;27;20589;-62
2021/11/04 05:08:14;;;;;;;45.20;24.93;;;;;;;;;;5119184;27;20183;-62
2021/11/04 05:10:40;;;;;;;44.33;24.90;;;;;;;;;;5118177;27;20176;-62
2021/11/04 05:13:07;;;;;;;43.37;23.90;;;;;;;;;;5096337;28;20179;-62
2021/11/04 05:15:33;;;;;;;40.17;22.97;;;;;;;;;;5116428;27;20182;-62
2021/11/04 05:18:00;;;;;;;42.23;23.80;;;;;;;;;;5109970;27;20550;-62
2021/11/04 05:20:27;;;;;;;42.93;24.00;;;;;;;;;;5110817;27;20245;-61
2021/11/04 05:22:53;;;;;;;41.93;23.73;;;;;;;;;;5101209;27;20313;-62
2021/11/04 05:25:19;;;;;;;42.70;25.43;;;;;;;;;;5109930;27;20206;-62
2021/11/04 05:27:48;;;;;;;44.33;23.77;;;;;;;;;;5091670;27;20701;-62
2021/11/04 05:30:18;;;;;;;43.27;23.10;;;;;;;;;;5089969;27;20280;-62
2021/11/04 05:32:45;;;;;;;42.87;24.33;;;;;;;;;;5094959;27;20178;-62
2021/11/04 05:35:12;;;;;;;45.80;25.17;;;;;;;;;;5097403;27;20661;-62
2021/11/04 05:37:39;;;;;;;45.03;23.67;;;;;;;;;;5092206;27;20183;-62
2021/11/04 05:40:08;;;;;;;42.00;23.97;;;;;;;;;;5091578;27;20182;-62
2021/11/04 05:42:37;;;;;;;47.73;24.90;;;;;;;;;;5096393;28;20186;-62
2021/11/04 05:45:07;;;;;;;43.63;23.33;;;;;;;;;;5095755;27;20262;-62
2021/11/04 05:47:34;;;;;;;45.70;23.47;;;;;;;;;;5097977;28;20302;-62
2021/11/04 05:50:00;;;;;;;46.30;24.20;;;;;;;;;;5104185;28;20271;-62
2021/11/04 05:52:27;;;;;;;41.23;23.97;;;;;;;;;;5103938;27;20629;-61
2021/11/04 05:54:56;;;;;;;47.27;24.77;;;;;;;;;;5093898;27;20186;-62
2021/11/04 05:57:23;;;;;;;43.23;23.40;;;;;;;;;;5096797;27;20183;-62
2021/11/04 05:59:52;;;;;;;45.33;24.27;;;;;;;;;;5107354;27;20190;-62
2021/11/04 06:02:18;;;;;;;45.83;26.13;;;;;;;;;;5091703;27;20195;-62
2021/11/04 06:04:45;;;;;;;41.33;22.97;;;;;;;;;;5108466;27;20190;-62
2021/11/04 06:07:15;;;;;;;46.47;24.30;;;;;;;;;;5092139;28;20632;-62
2021/11/04 06:09:42;;;;;;;48.07;23.57;;;;;;;;;;5089122;28;20246;-62
2021/11/04 06:12:09;;;;;;;46.97;24.97;;;;;;;;;;5097754;28;20283;-61
2021/11/04 06:14:36;;;;;;;46.80;23.47;;;;;;;;;;5106209;27;20186;-62
2021/11/04 06:17:02;;;;;;;47.93;23.53;;;;;;;;;;5098441;28;20215;-62
2021/11/04 06:19:29;;;;;;;45.50;23.03;;;;;;;;;;5092004;27;20554;-62
2021/11/04 06:21:55;;;;;;;45.47;23.57;;;;;;;;;;5097860;27;20244;-62
2021/11/04 06:24:21;;;;;;;45.00;23.67;;;;;;;;;;5090805;28;20214;-62
2021/11/04 06:26:48;;;;;;;46.23;23.47;;;;;;;;;;5107071;27;20434;-62
2021/11/04 06:29:14;;;;;;;40.97;23.13;;;;;;;;;;5110685;28;20545;-62
2021/11/04 06:31:40;;;;;;;48.13;24.07;;;;;;;;;;5110946;27;20185;-62
2021/11/04 06:34:06;;;;;;;42.97;22.63;;;;;;;;;;5096817;28;20182;-62
2021/11/04 06:36:32;;;;;;;52.00;23.33;;;;;;;;;;5095610;28;20197;-62
2021/11/04 06:39:01;;;;;;;46.40;22.73;;;;;;;;;;5090654;28;20273;-62
2021/11/04 06:41:27;;;;;;;51.50;25.00;;;;;;;;;;5094738;28;20183;-62
2021/11/04 06:43:53;;;;;;;43.90;22.03;;;;;;;;;;5118382;28;20191;-62
2021/11/04 06:46:23;;;;;;;41.70;21.70;;;;;;;;;;5097124;28;20186;-62
2021/11/04 06:48:52;;;;;;;46.63;23.40;;;;;;;;;;5108900;28;20621;-62
2021/11/04 06:51:23;;;;;;;53.83;24.10;;;;;;;;;;5100135;28;20689;-62
2021/11/04 06:53:53;;;;;;;42.40;21.83;;;;;;;;;;5105324;28;20183;-61
2021/11/04 06:56:23;;;;;;;44.73;23.03;;;;;;;;;;5113662;28;20364;-62
2021/11/04 06:58:51;;;;;;;42.53;20.57;;;;;;;;;;5091892;28;20617;-62
2021/11/04 07:01:19;;;;;;;44.43;22.47;;;;;;;;;;5099719;28;20182;-62
2021/11/04 07:04:03;;;;;;;48.17;22.53;;;;;;;;;;5089960;28;20236;-62
2021/11/04 07:06:31;;;;;;;42.80;22.70;;;;;;;;;;5096463;28;20657;-62
2021/11/04 07:08:59;;;;;;;45.13;22.00;;;;;;;;;;5088786;28;20189;-61
2021/11/04 07:11:26;;;;;;;42.03;21.60;;;;;;;;;;5112971;28;20695;-62
2021/11/04 07:13:53;;;;;;;42.83;21.57;;;;;;;;;;5093424;28;20179;-62
2021/11/04 07:16:24;;;;;;;40.17;20.27;;;;;;;;;;5093880;28;20578;-62
2021/11/04 07:18:53;;;;;;;38.60;19.00;;;;;;;;;;5094331;28;20187;-62
2021/11/04 07:21:40;;;;;;;37.93;19.53;;;;;;;;;;5125444;27;20218;-61
2021/11/04 07:24:08;;;;;;;35.63;19.80;;;;;;;;;;5095134;28;20236;-62
2021/11/04 07:26:45;;;;;;;39.67;19.47;;;;;;;;;;5100943;28;20198;-61
2021/11/04 07:29:12;;;;;;;36.73;18.07;;;;;;;;;;5111732;28;20215;-62
2021/11/04 07:31:40;;;;;;;43.37;19.30;;;;;;;;;;5101249;28;20189;-62
2021/11/04 07:34:08;;;;;;;37.67;18.93;;;;;;;;;;5106281;28;20182;-62
2021/11/04 07:36:39;;;;;;;39.57;20.60;;;;;;;;;;5103958;27;20186;-62
2021/11/04 07:39:07;;;;;;;35.67;18.70;;;;;;;;;;5103019;27;20187;-61
2021/11/04 07:41:34;;;;;;;38.30;17.87;;;;;;;;;;5109149;27;20190;-62
2021/11/04 07:44:01;;;;;;;45.17;20.50;;;;;;;;;;5104468;28;20305;-63
2021/11/04 07:46:28;;;;;;;39.00;19.67;;;;;;;;;;5106898;27;20238;-59
2021/11/04 07:48:55;;;;;;;43.80;20.73;;;;;;;;;;5132338;27;20175;-61
2021/11/04 07:51:22;;;;;;;41.20;19.67;;;;;;;;;;5103206;27;20186;-61
2021/11/04 07:53:48;;;;;;;34.83;17.67;;;;;;;;;;5113480;27;20596;-61
2021/11/04 07:56:15;;;;;;;36.37;18.10;;;;;;;;;;5105766;27;20668;-61
2021/11/04 07:58:41;;;;;;;37.00;18.83;;;;;;;;;;5124654;27;20206;-61
2021/11/04 08:01:08;;;;;;;37.37;20.47;;;;;;;;;;5098210;27;20190;-61
2021/11/04 08:03:37;;;;;;;39.93;19.23;;;;;;;;;;5096296;27;20351;-61
2021/11/04 08:06:04;;;;;;;35.07;18.67;;;;;;;;;;5094898;27;20189;-61
2021/11/04 08:08:35;;;;;;;38.20;19.90;;;;;;;;;;5112667;27;20187;-61
2021/11/04 08:11:02;;;;;;;39.83;20.07;;;;;;;;;;5095839;27;20808;-61
2021/11/04 08:13:28;;;;;;;35.23;18.17;;;;;;;;;;5095487;27;20903;-61
2021/11/04 08:15:54;;;;;;;34.37;18.43;;;;;;;;;;5094108;27;20726;-62
2021/11/04 08:18:21;;;;;;;35.77;19.83;;;;;;;;;;5095884;27;20200;-62
2021/11/04 08:20:47;;;;;;;38.27;18.60;;;;;;;;;;5115947;27;20208;-62
2021/11/04 08:23:18;;;;;;;34.97;18.20;;;;;;;;;;5070630;28;20310;-62
2021/11/04 08:25:45;;;;;;;34.00;18.07;;;;;;;;;;5088924;28;20199;-62
2021/11/04 08:28:11;;;;;;;36.00;19.27;;;;;;;;;;5072668;28;20183;-62
2021/11/04 08:30:37;;;;;;;33.27;18.33;;;;;;;;;;5076054;28;20206;-62
2021/11/04 08:33:04;;;;;;;34.57;18.83;;;;;;;;;;5088933;28;20638;-62
2021/11/04 08:35:31;;;;;;;37.30;19.83;;;;;;;;;;5081481;28;20590;-63
2021/11/04 08:38:00;;;;;;;31.07;18.53;;;;;;;;;;5075027;28;20190;-62
2021/11/04 08:40:27;;;;;;;35.97;17.93;;;;;;;;;;5077895;28;20205;-62
2021/11/04 08:42:53;;;;;;;36.47;18.73;;;;;;;;;;5068802;28;20195;-62
2021/11/04 08:45:23;;;;;;;34.10;18.97;;;;;;;;;;5087446;28;20267;-62
2021/11/04 08:47:49;;;;;;;36.97;19.63;;;;;;;;;;5068292;28;20827;-62
2021/11/04 08:50:17;;;;;;;31.90;18.43;;;;;;;;;;5071019;28;20179;-62
2021/11/04 08:52:43;;;;;;;35.47;19.00;;;;;;;;;;5071920;28;20592;-62
2021/11/04 08:55:09;;;;;;;33.93;18.70;;;;;;;;;;5077307;28;20654;-62
2021/11/04 08:57:39;;;;;;;33.27;19.47;;;;;;;;;;5092772;28;20175;-62
2021/11/04 09:00:07;;;;;;;36.53;20.87;;;;;;;;;;5078672;28;20172;-62
2021/11/04 09:02:34;;;;;;;35.40;20.93;;;;;;;;;;5076778;28;20630;-62
2021/11/04 09:05:07;;;;;;;39.83;21.27;;;;;;;;;;5072610;28;20210;-62
2021/11/04 09:07:33;;;;;;;35.47;22.10;;;;;;;;;;5067399;28;20176;-62
2021/11/04 09:10:00;;;;;;;36.73;20.83;;;;;;;;;;5060237;28;20628;-62
2021/11/04 09:12:27;;;;;;;35.87;21.57;;;;;;;;;;5068940;28;20733;-62
2021/11/04 09:14:53;;;;;;;44.40;23.73;;;;;;;;;;5070415;28;20283;-62
2021/11/04 09:17:22;;;;;;;35.10;21.37;;;;;;;;;;5091153;28;20270;-62
2021/11/04 09:19:51;;;;;;;37.70;21.73;;;;;;;;;;5074100;28;20200;-62
2021/11/04 09:22:19;;;;;;;34.37;20.77;;;;;;;;;;5088474;27;20226;-62
2021/11/04 09:24:50;;;;;;;36.67;23.53;;;;;;;;;;5101444;27;20205;-62
2021/11/04 09:27:17;;;;;;;37.03;21.60;;;;;;;;;;5090576;27;20555;-62
2021/11/04 09:29:45;;;;;;;38.33;22.33;;;;;;;;;;5091289;28;20554;-62
2021/11/04 09:32:12;;;;;;;36.57;21.97;;;;;;;;;;5088085;27;20189;-62
2021/11/04 09:34:39;;;;;;;35.57;22.77;;;;;;;;;;5089129;27;20229;-62
2021/11/04 09:37:08;;;;;;;36.23;21.87;;;;;;;;;;5098228;27;20822;-62
2021/11/04 09:39:35;;;;;;;35.47;23.30;;;;;;;;;;5091778;27;20259;-62
2021/11/04 09:42:05;;;;;;;32.03;20.30;;;;;;;;;;5090172;27;20179;-63
2021/11/04 09:44:32;;;;;;;29.77;19.33;;;;;;;;;;5107419;27;20305;-62
2021/11/04 09:46:58;;;;;;;33.20;21.87;;;;;;;;;;5108222;27;20612;-62
2021/11/04 09:49:27;;;;;;;33.73;21.17;;;;;;;;;;5110950;27;20704;-63
2021/11/04 09:51:53;;;;;;;37.60;23.60;;;;;;;;;;5095468;27;20707;-62
2021/11/04 09:54:20;;;;;;;35.77;22.60;;;;;;;;;;5109108;27;20202;-62
2021/11/04 09:56:46;;;;;;;35.97;22.20;;;;;;;;;;5095909;27;20444;-62
2021/11/04 09:59:14;;;;;;;36.27;21.87;;;;;;;;;;5093326;27;20303;-63
2021/11/04 10:01:49;;;;;;;36.93;22.47;;;;;;;;;;5096540;27;20887;-62
2021/11/04 10:04:31;;;;;;;36.90;22.47;;;;;;;;;;5091540;27;20205;-62
2021/11/04 10:06:58;;;;;;;33.33;22.37;;;;;;;;;;5091107;28;20175;-63
2021/11/04 10:09:27;;;;;;;33.70;22.07;;;;;;;;;;5094544;27;20175;-62
2021/11/04 10:11:54;;;;;;;35.77;22.70;;;;;;;;;;5092477;27;20827;-62
2021/11/04 10:14:23;;;;;;;36.50;23.50;;;;;;;;;;5114163;27;20561;-63
2021/11/04 10:16:50;;;;;;;34.40;21.03;;;;;;;;;;5092522;27;20198;-62
2021/11/04 10:19:17;;;;;;;37.07;22.33;;;;;;;;;;5100139;27;20194;-63
2021/11/04 10:21:45;;;;;;;35.30;22.53;;;;;;;;;;5108607;27;20297;-62
2021/11/04 10:24:16;;;;;;;34.80;22.37;;;;;;;;;;5094147;28;20207;-62
2021/11/04 10:26:42;;;;;;;35.13;21.77;;;;;;;;;;5096260;28;20210;-62
2021/11/04 10:29:10;;;;;;;35.07;22.27;;;;;;;;;;5090549;27;20798;-62
2021/11/04 10:31:38;;;;;;;36.10;22.83;;;;;;;;;;5106925;27;20179;-62
2021/11/04 10:34:06;;;;;;;34.23;22.47;;;;;;;;;;5096239;27;20189;-62
2021/11/04 10:36:34;;;;;;;35.63;22.63;;;;;;;;;;5090192;28;20282;-62
2021/11/04 10:39:01;;;;;;;32.93;22.17;;;;;;;;;;5091778;27;20179;-62
2021/11/04 10:41:32;;;;;;;36.80;23.50;;;;;;;;;;5096983;28;20194;-63
2021/11/04 10:44:20;;;;;;;36.23;23.63;;;;;;;;;;5090555;28;20237;-62
2021/11/04 10:46:51;;;;;;;39.67;25.10;;;;;;;;;;5086879;28;20556;-62
2021/11/04 10:49:19;;;;;;;30.43;21.50;;;;;;;;;;5104954;28;20521;-63
2021/11/04 10:51:45;;;;;;;38.33;24.33;;;;;;;;;;5097785;28;20236;-62
2021/11/04 10:54:13;;;;;;;36.90;22.83;;;;;;;;;;5093968;28;20524;-62
2021/11/04 10:56:46;;;;;;;35.10;24.43;;;;;;;;;;5103688;28;20242;-62
2021/11/04 10:59:14;;;;;;;35.37;22.23;;;;;;;;;;5090062;28;20668;-62
2021/11/04 11:01:44;;;;;;;36.60;23.27;;;;;;;;;;5108797;28;20653;-62
2021/11/04 11:04:34;;;;;;;33.87;23.10;;;;;;;;;;5086069;28;20206;-63
2021/11/04 11:07:06;;;;;;;33.80;23.37;;;;;;;;;;5071996;28;20201;-62
2021/11/04 11:09:37;;;;;;;34.53;23.43;;;;;;;;;;5091431;28;20240;-63
2021/11/04 11:12:05;;;;;;;30.07;21.13;;;;;;;;;;5090202;27;20256;-63
2021/11/04 11:14:36;;;;;;;36.77;22.27;;;;;;;;;;5091112;27;20182;-62
2021/11/04 11:17:04;;;;;;;34.23;22.30;;;;;;;;;;5090984;27;20179;-63
2021/11/04 11:19:31;;;;;;;33.13;22.13;;;;;;;;;;5111711;27;20174;-63
2021/11/04 11:21:58;;;;;;;31.47;20.97;;;;;;;;;;5092953;27;20232;-63
2021/11/04 11:24:38;;;;;;;30.10;21.57;;;;;;;;;;5093856;27;20221;-63
2021/11/04 11:27:06;;;;;;;31.57;22.73;;;;;;;;;;5102880;27;20218;-63
2021/11/04 11:29:33;;;;;;;30.03;20.67;;;;;;;;;;5113076;27;20197;-63
2021/11/04 11:32:05;;;;;;;30.33;20.00;;;;;;;;;;5114327;27;20187;-63
2021/11/04 11:34:35;;;;;;;29.47;21.37;;;;;;;;;;5089450;27;20642;-63
2021/11/04 11:37:06;;;;;;;27.20;20.27;;;;;;;;;;5091843;27;20282;-63
2021/11/04 11:39:43;;;;;;;29.27;20.40;;;;;;;;;;5089647;27;20589;-63
2021/11/04 11:42:13;;;;;;;29.57;20.90;;;;;;;;;;5095672;27;20198;-63
2021/11/04 11:44:48;;;;;;;28.63;21.17;;;;;;;;;;5097027;27;20203;-64
2021/11/04 11:47:19;;;;;;;30.60;20.93;;;;;;;;;;5094107;27;20183;-64
2021/11/04 11:49:47;;;;;;;28.80;20.60;;;;;;;;;;5093116;27;20195;-64
2021/11/04 11:52:34;;;;;;;32.57;21.20;;;;;;;;;;5109724;27;20183;-64
2021/11/04 11:55:00;;;;;;;31.57;21.93;;;;;;;;;;5078174;28;20191;-64
2021/11/04 11:57:30;;;;;;;30.93;22.60;;;;;;;;;;5095633;27;20182;-64
2021/11/04 12:00:01;;;;;;;34.03;24.77;;;;;;;;;;5095697;27;20178;-64
2021/11/04 12:02:36;;;;;;;37.10;26.13;;;;;;;;;;5088961;27;20190;-64
2021/11/04 12:05:20;;;;;;;34.37;23.73;;;;;;;;;;5103018;27;20186;-64
2021/11/04 12:07:48;;;;;;;32.93;23.57;;;;;;;;;;5098845;27;20695;-64
2021/11/04 12:10:30;;;;;;;31.63;22.83;;;;;;;;;;5102748;28;20648;-64
2021/11/04 12:13:03;;;;;;;33.00;23.30;;;;;;;;;;5090724;27;20187;-63
2021/11/04 12:15:30;;;;;;;32.13;23.67;;;;;;;;;;5092498;27;20189;-64
2021/11/04 12:18:15;;;;;;;33.17;23.43;;;;;;;;;;5095756;27;20629;-64
2021/11/04 12:20:50;;;;;;;33.67;23.47;;;;;;;;;;5110548;27;20186;-64
2021/11/04 12:23:16;;;;;;;30.43;22.80;;;;;;;;;;5090579;27;20222;-64
2021/11/04 12:25:44;;;;;;;33.47;24.80;;;;;;;;;;5110692;27;20200;-64
2021/11/04 12:28:10;;;;;;;32.47;24.07;;;;;;;;;;5092894;28;20177;-63
2021/11/04 12:30:39;;;;;;;33.10;24.17;;;;;;;;;;5109098;27;20182;-64
2021/11/04 12:33:10;;;;;;;35.77;25.47;;;;;;;;;;5109285;27;20175;-64
2021/11/04 12:35:47;;;;;;;32.43;23.13;;;;;;;;;;5097293;27;20721;-63
2021/11/04 12:38:19;;;;;;;35.53;25.00;;;;;;;;;;5091172;27;20190;-63
2021/11/04 12:40:47;;;;;;;29.40;22.80;;;;;;;;;;5103403;27;20179;-63
2021/11/04 12:43:13;;;;;;;27.00;22.83;;;;;;;;;;5096537;28;20334;-63
2021/11/04 12:45:46;;;;;;;28.97;22.50;;;;;;;;;;5108746;27;20543;-64
2021/11/04 12:48:13;;;;;;;27.50;21.23;;;;;;;;;;5098888;27;20201;-63
2021/11/04 12:50:41;;;;;;;25.63;20.13;;;;;;;;;;5098144;27;20633;-63
2021/11/04 12:53:11;;;;;;;25.90;20.73;;;;;;;;;;5102089;27;20243;-64
2021/11/04 12:55:41;;;;;;;26.77;19.53;;;;;;;;;;5111845;27;20534;-63
2021/11/04 12:58:09;;;;;;;24.67;20.10;;;;;;;;;;5110820;27;20217;-64
2021/11/04 13:00:36;;;;;;;27.00;20.87;;;;;;;;;;5093498;27;20239;-64
2021/11/04 13:03:04;;;;;;;24.23;20.00;;;;;;;;;;5126588;27;20178;-64
2021/11/04 13:05:30;;;;;;;27.47;19.83;;;;;;;;;;5094162;27;20178;-62
2021/11/04 13:07:59;;;;;;;24.07;19.23;;;;;;;;;;5097656;28;20296;-62
2021/11/04 13:10:27;;;;;;;25.17;19.57;;;;;;;;;;5091083;28;20183;-63
2021/11/04 13:13:01;;;;;;;25.77;20.87;;;;;;;;;;5110723;27;20180;-62
2021/11/04 13:15:28;;;;;;;24.53;20.07;;;;;;;;;;5111307;27;20183;-62
2021/11/04 13:18:03;;;;;;;26.97;20.20;;;;;;;;;;5096519;28;20183;-62
2021/11/04 13:20:32;;;;;;;26.13;19.00;;;;;;;;;;5117270;27;20182;-62
2021/11/04 13:23:03;;;;;;;25.30;20.70;;;;;;;;;;5099344;27;20363;-62
2021/11/04 13:25:32;;;;;;;24.00;19.63;;;;;;;;;;5116281;27;20575;-62
2021/11/04 13:28:03;;;;;;;25.87;21.00;;;;;;;;;;5106399;27;20720;-62
2021/11/04 13:30:37;;;;;;;25.57;19.13;;;;;;;;;;5094831;27;20210;-62
2021/11/04 13:33:04;;;;;;;23.17;19.63;;;;;;;;;;5099976;27;20181;-62
2021/11/04 13:35:35;;;;;;;25.37;20.13;;;;;;;;;;5098609;27;20201;-62
2021/11/04 13:38:13;;;;;;;26.20;20.30;;;;;;;;;;5119979;27;20182;-62
2021/11/04 13:40:49;;;;;;;25.27;20.97;;;;;;;;;;5098253;28;20615;-62
2021/11/04 13:43:17;;;;;;;25.63;20.90;;;;;;;;;;5098603;27;20539;-63
2021/11/04 13:45:44;;;;;;;25.70;20.47;;;;;;;;;;5092724;27;20513;-62
2021/11/04 13:48:14;;;;;;;26.43;20.07;;;;;;;;;;5100758;28;20186;-62
2021/11/04 13:50:45;;;;;;;26.93;20.27;;;;;;;;;;5096866;27;20197;-63
2021/11/04 13:53:24;;;;;;;25.33;20.07;;;;;;;;;;5100819;27;20186;-63
2021/11/04 13:55:54;;;;;;;24.23;19.00;;;;;;;;;;5095236;27;20264;-63
2021/11/04 13:58:21;;;;;;;24.73;19.83;;;;;;;;;;5093511;28;20171;-63
2021/11/04 14:00:47;;;;;;;23.57;18.80;;;;;;;;;;5103303;27;20174;-63
2021/11/04 14:03:14;;;;;;;25.80;19.83;;;;;;;;;;5100832;27;20274;-63
2021/11/04 14:06:04;;;;;;;25.77;19.40;;;;;;;;;;5088944;28;20175;-63
2021/11/04 14:08:36;;;;;;;24.87;18.03;;;;;;;;;;5093767;28;20171;-63
2021/11/04 14:11:13;;;;;;;25.43;18.80;;;;;;;;;;5088796;28;20213;-64
2021/11/04 14:14:00;;;;;;;24.67;18.40;;;;;;;;;;5117409;27;20238;-64
2021/11/04 14:16:34;;;;;;;25.83;18.57;;;;;;;;;;5105044;27;20660;-64
2021/11/04 14:19:02;;;;;;;23.87;18.40;;;;;;;;;;5100027;28;20607;-64
2021/11/04 14:21:29;;;;;;;25.57;18.90;;;;;;;;;;5095796;27;20784;-64
2021/11/04 14:24:00;;;;;;;20.77;17.17;;;;;;;;;;5090487;28;20195;-64